sensor_id;sensor_type;location;lat;lon;timestamp;temperature;humidity
12434;DHT22;6281;49.038;8.372;2023-07-13T00:00:47;19.30;99.90
12434;DHT22;6281;49.038;8.372;2023-07-13T00:03:14;19.00;99.90
12434;DHT22;6281;49.038;8.372;2023-07-13T00:05:44;19.30;99.90
12434;DHT22;6281;49.038;8.372;2023-07-13T00:08:11;19.40;99.90
12434;DHT22;6281;49.038;8.372;2023-07-13T00:10:41;19.10;99.90
12434;DHT22;6281;49.038;8.372;2023-07-13T00:13:08;19.00;99.90
12434;DHT22;6281;49.038;8.372;2023-07-13T00:15:35;19.10;99.90
12434;DHT22;6281;49.038;8.372;2023-07-13T00:18:03;19.20;99.90
12434;DHT22;6281;49.038;8.372;2023-07-13T00:20:30;19.10;99.90
12434;DHT22;6281;49.038;8.372;2023-07-13T00:22:59;18.80;99.90
12434;DHT22;6281;49.038;8.372;2023-07-13T00:25:26;18.80;99.90
12434;DHT22;6281;49.038;8.372;2023-07-13T00:27:54;18.90;99.90
12434;DHT22;6281;49.038;8.372;2023-07-13T00:30:22;19.00;99.90
12434;DHT22;6281;49.038;8.372;2023-07-13T00:32:49;18.70;99.90
12434;DHT22;6281;49.038;8.372;2023-07-13T00:35:16;18.60;99.90
12434;DHT22;6281;49.038;8.372;2023-07-13T00:37:43;18.60;99.90
12434;DHT22;6281;49.038;8.372;2023-07-13T00:40:14;18.70;99.90
12434;DHT22;6281;49.038;8.372;2023-07-13T00:42:41;18.50;99.90
12434;DHT22;6281;49.038;8.372;2023-07-13T00:48:20;18.60;99.90
12434;DHT22;6281;49.038;8.372;2023-07-13T00:50:50;18.60;99.90
12434;DHT22;6281;49.038;8.372;2023-07-13T00:53:18;18.60;99.90
12434;DHT22;6281;49.038;8.372;2023-07-13T00:55:47;18.60;99.90
12434;DHT22;6281;49.038;8.372;2023-07-13T00:58:15;18.70;99.90
12434;DHT22;6281;49.038;8.372;2023-07-13T01:00:42;18.50;99.90
12434;DHT22;6281;49.038;8.372;2023-07-13T01:03:09;18.40;99.90
12434;DHT22;6281;49.038;8.372;2023-07-13T01:05:36;18.50;99.90
12434;DHT22;6281;49.038;8.372;2023-07-13T01:08:04;18.60;99.90
12434;DHT22;6281;49.038;8.372;2023-07-13T01:10:32;18.60;99.90
12434;DHT22;6281;49.038;8.372;2023-07-13T01:13:05;18.50;99.90
12434;DHT22;6281;49.038;8.372;2023-07-13T01:15:38;18.30;99.90
12434;DHT22;6281;49.038;8.372;2023-07-13T01:18:07;18.30;99.90
12434;DHT22;6281;49.038;8.372;2023-07-13T01:20:36;18.40;99.90
12434;DHT22;6281;49.038;8.372;2023-07-13T01:23:09;18.10;99.90
12434;DHT22;6281;49.038;8.372;2023-07-13T01:25:37;18.10;99.90
12434;DHT22;6281;49.038;8.372;2023-07-13T01:28:05;18.10;99.90
12434;DHT22;6281;49.038;8.372;2023-07-13T01:30:34;18.10;99.90
12434;DHT22;6281;49.038;8.372;2023-07-13T01:33:01;17.90;99.90
12434;DHT22;6281;49.038;8.372;2023-07-13T01:35:29;17.80;99.90
12434;DHT22;6281;49.038;8.372;2023-07-13T01:37:56;17.80;99.90
12434;DHT22;6281;49.038;8.372;2023-07-13T01:40:24;18.10;99.90
12434;DHT22;6281;49.038;8.372;2023-07-13T01:42:51;17.90;99.90
12434;DHT22;6281;49.038;8.372;2023-07-13T01:45:18;17.80;99.90
12434;DHT22;6281;49.038;8.372;2023-07-13T01:47:44;17.90;99.90
12434;DHT22;6281;49.038;8.372;2023-07-13T01:50:11;17.90;99.90
12434;DHT22;6281;49.038;8.372;2023-07-13T01:52:38;18.00;99.90
12434;DHT22;6281;49.038;8.372;2023-07-13T01:55:06;18.10;99.90
12434;DHT22;6281;49.038;8.372;2023-07-13T01:57:34;17.80;99.90
12434;DHT22;6281;49.038;8.372;2023-07-13T02:00:04;17.70;99.90
12434;DHT22;6281;49.038;8.372;2023-07-13T02:02:31;17.80;99.90
12434;DHT22;6281;49.038;8.372;2023-07-13T02:04:58;17.70;99.90
12434;DHT22;6281;49.038;8.372;2023-07-13T02:07:25;17.90;99.90
12434;DHT22;6281;49.038;8.372;2023-07-13T02:09:52;18.00;99.90
12434;DHT22;6281;49.038;8.372;2023-07-13T02:12:19;17.90;99.90
12434;DHT22;6281;49.038;8.372;2023-07-13T02:14:47;18.00;99.90
12434;DHT22;6281;49.038;8.372;2023-07-13T02:17:14;17.90;99.90
12434;DHT22;6281;49.038;8.372;2023-07-13T02:19:41;17.80;99.90
12434;DHT22;6281;49.038;8.372;2023-07-13T02:22:08;17.90;99.90
12434;DHT22;6281;49.038;8.372;2023-07-13T02:24:35;17.90;99.90
12434;DHT22;6281;49.038;8.372;2023-07-13T02:27:04;18.00;99.90
12434;DHT22;6281;49.038;8.372;2023-07-13T02:29:31;17.90;99.90
12434;DHT22;6281;49.038;8.372;2023-07-13T02:31:59;17.90;99.90
12434;DHT22;6281;49.038;8.372;2023-07-13T02:34:26;17.70;99.90
12434;DHT22;6281;49.038;8.372;2023-07-13T02:36:53;17.50;99.90
12434;DHT22;6281;49.038;8.372;2023-07-13T02:39:20;17.40;99.90
12434;DHT22;6281;49.038;8.372;2023-07-13T02:41:47;17.50;99.90
12434;DHT22;6281;49.038;8.372;2023-07-13T02:44:14;17.30;99.90
12434;DHT22;6281;49.038;8.372;2023-07-13T02:46:41;17.30;99.90
12434;DHT22;6281;49.038;8.372;2023-07-13T02:49:09;17.70;99.90
12434;DHT22;6281;49.038;8.372;2023-07-13T02:51:36;17.70;99.90
12434;DHT22;6281;49.038;8.372;2023-07-13T02:54:04;17.40;99.90
12434;DHT22;6281;49.038;8.372;2023-07-13T02:56:33;17.50;99.90
12434;DHT22;6281;49.038;8.372;2023-07-13T02:59:00;17.30;99.90
12434;DHT22;6281;49.038;8.372;2023-07-13T03:01:28;17.30;99.90
12434;DHT22;6281;49.038;8.372;2023-07-13T03:03:55;17.40;99.90
12434;DHT22;6281;49.038;8.372;2023-07-13T03:06:51;17.20;99.90
12434;DHT22;6281;49.038;8.372;2023-07-13T03:09:18;17.10;99.90
12434;DHT22;6281;49.038;8.372;2023-07-13T03:11:45;17.00;99.90
12434;DHT22;6281;49.038;8.372;2023-07-13T03:14:12;17.00;99.90
12434;DHT22;6281;49.038;8.372;2023-07-13T03:16:39;17.00;99.90
12434;DHT22;6281;49.038;8.372;2023-07-13T03:19:06;17.00;99.90
12434;DHT22;6281;49.038;8.372;2023-07-13T03:21:32;17.10;99.90
12434;DHT22;6281;49.038;8.372;2023-07-13T03:24:01;17.00;99.90
12434;DHT22;6281;49.038;8.372;2023-07-13T03:26:28;17.00;99.90
12434;DHT22;6281;49.038;8.372;2023-07-13T03:28:55;16.90;99.90
12434;DHT22;6281;49.038;8.372;2023-07-13T03:31:25;16.90;99.90
12434;DHT22;6281;49.038;8.372;2023-07-13T03:33:54;16.90;99.90
12434;DHT22;6281;49.038;8.372;2023-07-13T03:36:22;16.80;99.90
12434;DHT22;6281;49.038;8.372;2023-07-13T03:38:51;16.90;99.90
12434;DHT22;6281;49.038;8.372;2023-07-13T03:41:20;16.90;99.90
12434;DHT22;6281;49.038;8.372;2023-07-13T03:43:47;16.80;99.90
12434;DHT22;6281;49.038;8.372;2023-07-13T03:46:14;16.70;99.90
12434;DHT22;6281;49.038;8.372;2023-07-13T03:48:42;16.80;99.90
12434;DHT22;6281;49.038;8.372;2023-07-13T03:51:10;16.60;99.90
12434;DHT22;6281;49.038;8.372;2023-07-13T03:53:39;16.80;99.90
12434;DHT22;6281;49.038;8.372;2023-07-13T03:56:07;16.70;99.90
12434;DHT22;6281;49.038;8.372;2023-07-13T03:58:37;16.50;99.90
12434;DHT22;6281;49.038;8.372;2023-07-13T04:01:06;16.60;99.90
12434;DHT22;6281;49.038;8.372;2023-07-13T04:03:34;16.70;99.90
12434;DHT22;6281;49.038;8.372;2023-07-13T04:06:02;16.80;99.90
12434;DHT22;6281;49.038;8.372;2023-07-13T04:08:32;16.80;99.90
12434;DHT22;6281;49.038;8.372;2023-07-13T04:11:00;16.90;99.90
12434;DHT22;6281;49.038;8.372;2023-07-13T04:13:27;16.90;99.90
12434;DHT22;6281;49.038;8.372;2023-07-13T04:15:56;16.80;99.90
12434;DHT22;6281;49.038;8.372;2023-07-13T04:18:23;16.80;99.90
12434;DHT22;6281;49.038;8.372;2023-07-13T04:20:51;16.80;99.90
12434;DHT22;6281;49.038;8.372;2023-07-13T04:23:18;16.80;99.90
12434;DHT22;6281;49.038;8.372;2023-07-13T04:25:45;16.90;99.90
12434;DHT22;6281;49.038;8.372;2023-07-13T04:28:12;16.90;99.90
12434;DHT22;6281;49.038;8.372;2023-07-13T04:30:39;17.00;99.90
12434;DHT22;6281;49.038;8.372;2023-07-13T04:33:07;16.90;99.90
12434;DHT22;6281;49.038;8.372;2023-07-13T04:35:34;16.90;99.90
12434;DHT22;6281;49.038;8.372;2023-07-13T04:38:03;16.90;99.90
12434;DHT22;6281;49.038;8.372;2023-07-13T04:40:31;17.10;99.90
12434;DHT22;6281;49.038;8.372;2023-07-13T04:42:58;17.10;99.90
12434;DHT22;6281;49.038;8.372;2023-07-13T04:45:25;17.10;99.90
12434;DHT22;6281;49.038;8.372;2023-07-13T04:47:52;17.10;99.90
12434;DHT22;6281;49.038;8.372;2023-07-13T04:50:20;17.40;99.90
12434;DHT22;6281;49.038;8.372;2023-07-13T04:52:48;17.60;99.90
12434;DHT22;6281;49.038;8.372;2023-07-13T04:55:16;17.60;99.90
12434;DHT22;6281;49.038;8.372;2023-07-13T04:57:43;17.60;99.90
12434;DHT22;6281;49.038;8.372;2023-07-13T05:00:11;17.80;99.90
12434;DHT22;6281;49.038;8.372;2023-07-13T05:02:39;17.80;99.90
12434;DHT22;6281;49.038;8.372;2023-07-13T05:05:07;17.90;99.90
12434;DHT22;6281;49.038;8.372;2023-07-13T05:07:35;17.90;99.90
12434;DHT22;6281;49.038;8.372;2023-07-13T05:10:02;17.80;99.90
12434;DHT22;6281;49.038;8.372;2023-07-13T05:12:30;17.80;99.90
12434;DHT22;6281;49.038;8.372;2023-07-13T05:14:57;17.70;99.90
12434;DHT22;6281;49.038;8.372;2023-07-13T05:17:24;17.70;99.90
12434;DHT22;6281;49.038;8.372;2023-07-13T05:19:50;17.80;99.90
12434;DHT22;6281;49.038;8.372;2023-07-13T05:22:17;17.80;99.90
12434;DHT22;6281;49.038;8.372;2023-07-13T05:24:46;17.90;99.90
12434;DHT22;6281;49.038;8.372;2023-07-13T05:27:13;18.00;99.90
12434;DHT22;6281;49.038;8.372;2023-07-13T05:29:39;18.10;99.90
12434;DHT22;6281;49.038;8.372;2023-07-13T05:32:06;18.00;99.90
12434;DHT22;6281;49.038;8.372;2023-07-13T05:34:33;18.10;99.90
12434;DHT22;6281;49.038;8.372;2023-07-13T05:37:00;18.00;99.90
12434;DHT22;6281;49.038;8.372;2023-07-13T05:39:27;18.10;99.90
12434;DHT22;6281;49.038;8.372;2023-07-13T05:41:56;18.20;99.90
12434;DHT22;6281;49.038;8.372;2023-07-13T05:44:23;18.20;99.90
12434;DHT22;6281;49.038;8.372;2023-07-13T05:46:50;18.20;99.90
12434;DHT22;6281;49.038;8.372;2023-07-13T05:49:17;18.30;99.90
12434;DHT22;6281;49.038;8.372;2023-07-13T05:51:43;18.40;99.90
12434;DHT22;6281;49.038;8.372;2023-07-13T05:54:10;18.50;99.90
12434;DHT22;6281;49.038;8.372;2023-07-13T05:56:37;18.60;99.90
12434;DHT22;6281;49.038;8.372;2023-07-13T05:59:06;18.70;99.90
12434;DHT22;6281;49.038;8.372;2023-07-13T06:01:33;18.90;99.90
12434;DHT22;6281;49.038;8.372;2023-07-13T06:04:00;18.70;99.90
12434;DHT22;6281;49.038;8.372;2023-07-13T06:06:27;18.80;99.90
12434;DHT22;6281;49.038;8.372;2023-07-13T06:08:54;18.90;99.90
12434;DHT22;6281;49.038;8.372;2023-07-13T06:11:23;19.10;99.90
12434;DHT22;6281;49.038;8.372;2023-07-13T06:13:51;19.00;99.90
12434;DHT22;6281;49.038;8.372;2023-07-13T06:16:20;19.00;99.90
12434;DHT22;6281;49.038;8.372;2023-07-13T06:18:47;19.10;99.90
12434;DHT22;6281;49.038;8.372;2023-07-13T06:21:15;19.20;99.90
12434;DHT22;6281;49.038;8.372;2023-07-13T06:23:44;19.20;99.90
12434;DHT22;6281;49.038;8.372;2023-07-13T06:26:11;19.00;99.90
12434;DHT22;6281;49.038;8.372;2023-07-13T06:28:38;19.10;99.90
12434;DHT22;6281;49.038;8.372;2023-07-13T06:31:05;19.30;99.90
12434;DHT22;6281;49.038;8.372;2023-07-13T06:33:34;19.40;99.90
12434;DHT22;6281;49.038;8.372;2023-07-13T06:36:01;19.20;99.90
12434;DHT22;6281;49.038;8.372;2023-07-13T06:38:28;19.20;99.90
12434;DHT22;6281;49.038;8.372;2023-07-13T06:40:55;19.20;99.90
12434;DHT22;6281;49.038;8.372;2023-07-13T06:43:23;19.40;99.90
12434;DHT22;6281;49.038;8.372;2023-07-13T06:45:51;19.50;99.90
12434;DHT22;6281;49.038;8.372;2023-07-13T06:48:19;19.60;99.90
12434;DHT22;6281;49.038;8.372;2023-07-13T06:50:48;19.60;99.90
12434;DHT22;6281;49.038;8.372;2023-07-13T06:53:17;19.80;99.90
12434;DHT22;6281;49.038;8.372;2023-07-13T06:55:45;19.80;99.90
12434;DHT22;6281;49.038;8.372;2023-07-13T06:58:14;19.70;99.90
12434;DHT22;6281;49.038;8.372;2023-07-13T07:00:41;19.70;99.90
12434;DHT22;6281;49.038;8.372;2023-07-13T07:03:08;19.80;99.90
12434;DHT22;6281;49.038;8.372;2023-07-13T07:05:35;19.80;99.90
12434;DHT22;6281;49.038;8.372;2023-07-13T07:08:04;20.10;99.90
12434;DHT22;6281;49.038;8.372;2023-07-13T07:10:31;20.10;99.90
12434;DHT22;6281;49.038;8.372;2023-07-13T07:12:58;20.20;99.90
12434;DHT22;6281;49.038;8.372;2023-07-13T07:15:25;20.30;99.90
12434;DHT22;6281;49.038;8.372;2023-07-13T07:17:53;20.30;99.90
12434;DHT22;6281;49.038;8.372;2023-07-13T07:20:19;20.30;99.90
12434;DHT22;6281;49.038;8.372;2023-07-13T07:22:47;20.30;99.90
12434;DHT22;6281;49.038;8.372;2023-07-13T07:25:15;20.40;99.90
12434;DHT22;6281;49.038;8.372;2023-07-13T07:27:42;20.50;99.90
12434;DHT22;6281;49.038;8.372;2023-07-13T07:30:10;20.70;99.90
12434;DHT22;6281;49.038;8.372;2023-07-13T07:32:37;20.80;99.90
12434;DHT22;6281;49.038;8.372;2023-07-13T07:35:05;20.90;99.90
12434;DHT22;6281;49.038;8.372;2023-07-13T07:37:32;21.00;99.90
12434;DHT22;6281;49.038;8.372;2023-07-13T07:39:59;21.00;99.90
12434;DHT22;6281;49.038;8.372;2023-07-13T07:42:27;20.90;99.90
12434;DHT22;6281;49.038;8.372;2023-07-13T07:44:54;21.10;99.90
12434;DHT22;6281;49.038;8.372;2023-07-13T07:47:21;21.00;99.90
12434;DHT22;6281;49.038;8.372;2023-07-13T07:49:49;21.00;99.90
12434;DHT22;6281;49.038;8.372;2023-07-13T07:52:16;21.30;99.90
12434;DHT22;6281;49.038;8.372;2023-07-13T07:54:43;21.40;99.90
12434;DHT22;6281;49.038;8.372;2023-07-13T07:57:10;21.40;99.90
12434;DHT22;6281;49.038;8.372;2023-07-13T07:59:38;21.30;99.90
12434;DHT22;6281;49.038;8.372;2023-07-13T08:02:06;21.30;99.90
12434;DHT22;6281;49.038;8.372;2023-07-13T08:04:33;21.50;99.90
12434;DHT22;6281;49.038;8.372;2023-07-13T08:07:00;21.70;99.90
12434;DHT22;6281;49.038;8.372;2023-07-13T08:09:28;21.60;99.90
12434;DHT22;6281;49.038;8.372;2023-07-13T08:11:55;21.40;99.90
12434;DHT22;6281;49.038;8.372;2023-07-13T08:14:22;21.60;99.90
12434;DHT22;6281;49.038;8.372;2023-07-13T08:16:50;21.90;99.90
12434;DHT22;6281;49.038;8.372;2023-07-13T08:19:17;22.10;99.90
12434;DHT22;6281;49.038;8.372;2023-07-13T08:21:44;22.00;99.90
12434;DHT22;6281;49.038;8.372;2023-07-13T08:24:13;22.30;99.90
12434;DHT22;6281;49.038;8.372;2023-07-13T08:26:40;22.60;99.90
12434;DHT22;6281;49.038;8.372;2023-07-13T08:29:07;22.40;99.90
12434;DHT22;6281;49.038;8.372;2023-07-13T08:31:34;22.60;99.90
12434;DHT22;6281;49.038;8.372;2023-07-13T08:34:03;22.30;99.90
12434;DHT22;6281;49.038;8.372;2023-07-13T08:36:30;22.70;99.90
12434;DHT22;6281;49.038;8.372;2023-07-13T08:38:56;22.40;99.90
12434;DHT22;6281;49.038;8.372;2023-07-13T08:41:23;22.30;99.90
12434;DHT22;6281;49.038;8.372;2023-07-13T08:43:54;22.20;99.90
12434;DHT22;6281;49.038;8.372;2023-07-13T08:46:25;22.30;99.90
12434;DHT22;6281;49.038;8.372;2023-07-13T08:48:56;22.50;99.90
12434;DHT22;6281;49.038;8.372;2023-07-13T08:51:31;22.60;99.90
12434;DHT22;6281;49.038;8.372;2023-07-13T08:54:02;22.90;99.90
12434;DHT22;6281;49.038;8.372;2023-07-13T08:56:31;23.10;99.90
12434;DHT22;6281;49.038;8.372;2023-07-13T08:59:01;23.10;99.90
12434;DHT22;6281;49.038;8.372;2023-07-13T09:01:34;23.20;99.90
12434;DHT22;6281;49.038;8.372;2023-07-13T09:04:13;23.20;99.90
12434;DHT22;6281;49.038;8.372;2023-07-13T09:06:55;23.10;99.90
12434;DHT22;6281;49.038;8.372;2023-07-13T09:09:31;23.10;99.90
12434;DHT22;6281;49.038;8.372;2023-07-13T09:12:12;23.30;99.90
12434;DHT22;6281;49.038;8.372;2023-07-13T09:14:43;23.90;99.90
12434;DHT22;6281;49.038;8.372;2023-07-13T09:17:18;23.80;99.90
12434;DHT22;6281;49.038;8.372;2023-07-13T09:19:50;23.70;99.90
12434;DHT22;6281;49.038;8.372;2023-07-13T09:22:21;23.80;99.90
12434;DHT22;6281;49.038;8.372;2023-07-13T09:24:55;24.30;99.90
12434;DHT22;6281;49.038;8.372;2023-07-13T09:27:30;23.80;99.90
12434;DHT22;6281;49.038;8.372;2023-07-13T09:30:10;23.80;99.90
12434;DHT22;6281;49.038;8.372;2023-07-13T09:32:45;23.80;99.90
12434;DHT22;6281;49.038;8.372;2023-07-13T09:35:18;24.10;99.90
12434;DHT22;6281;49.038;8.372;2023-07-13T09:37:47;24.10;99.90
12434;DHT22;6281;49.038;8.372;2023-07-13T09:40:20;23.60;99.90
12434;DHT22;6281;49.038;8.372;2023-07-13T09:42:48;23.70;99.90
12434;DHT22;6281;49.038;8.372;2023-07-13T09:45:27;24.30;99.90
12434;DHT22;6281;49.038;8.372;2023-07-13T09:47:59;24.40;99.90
12434;DHT22;6281;49.038;8.372;2023-07-13T09:50:26;24.20;99.30
12434;DHT22;6281;49.038;8.372;2023-07-13T09:52:56;24.40;99.90
12434;DHT22;6281;49.038;8.372;2023-07-13T09:55:26;24.40;94.20
12434;DHT22;6281;49.038;8.372;2023-07-13T09:57:53;24.50;96.80
12434;DHT22;6281;49.038;8.372;2023-07-13T10:00:25;25.50;99.90
12434;DHT22;6281;49.038;8.372;2023-07-13T10:03:03;25.30;93.80
12434;DHT22;6281;49.038;8.372;2023-07-13T10:05:39;24.80;95.50
12434;DHT22;6281;49.038;8.372;2023-07-13T10:08:19;25.40;96.20
12434;DHT22;6281;49.038;8.372;2023-07-13T10:10:52;24.80;99.90
12434;DHT22;6281;49.038;8.372;2023-07-13T10:13:33;25.10;96.30
12434;DHT22;6281;49.038;8.372;2023-07-13T10:16:03;25.10;95.50
12434;DHT22;6281;49.038;8.372;2023-07-13T10:18:37;25.00;95.40
12434;DHT22;6281;49.038;8.372;2023-07-13T10:21:13;28.40;89.20
12434;DHT22;6281;49.038;8.372;2023-07-13T10:23:42;29.50;79.20
12434;DHT22;6281;49.038;8.372;2023-07-13T10:26:15;31.60;66.20
12434;DHT22;6281;49.038;8.372;2023-07-13T10:28:45;33.10;56.40
12434;DHT22;6281;49.038;8.372;2023-07-13T10:31:15;31.10;56.30
12434;DHT22;6281;49.038;8.372;2023-07-13T10:33:43;29.90;58.40
12434;DHT22;6281;49.038;8.372;2023-07-13T10:36:17;29.50;57.70
12434;DHT22;6281;49.038;8.372;2023-07-13T10:38:48;29.50;59.30
12434;DHT22;6281;49.038;8.372;2023-07-13T10:41:19;29.10;59.30
12434;DHT22;6281;49.038;8.372;2023-07-13T10:43:50;29.80;57.40
12434;DHT22;6281;49.038;8.372;2023-07-13T10:46:19;29.40;57.30
12434;DHT22;6281;49.038;8.372;2023-07-13T10:48:50;28.70;59.90
12434;DHT22;6281;49.038;8.372;2023-07-13T10:51:19;29.50;59.30
12434;DHT22;6281;49.038;8.372;2023-07-13T10:54:14;30.80;52.00
12434;DHT22;6281;49.038;8.372;2023-07-13T10:56:42;29.60;56.50
12434;DHT22;6281;49.038;8.372;2023-07-13T10:59:12;29.50;58.30
12434;DHT22;6281;49.038;8.372;2023-07-13T11:01:46;27.90;62.40
12434;DHT22;6281;49.038;8.372;2023-07-13T11:04:15;27.90;66.00
12434;DHT22;6281;49.038;8.372;2023-07-13T11:06:43;27.40;68.00
12434;DHT22;6281;49.038;8.372;2023-07-13T11:09:34;28.10;63.40
12434;DHT22;6281;49.038;8.372;2023-07-13T11:12:07;27.00;69.50
12434;DHT22;6281;49.038;8.372;2023-07-13T11:14:36;26.60;71.00
12434;DHT22;6281;49.038;8.372;2023-07-13T11:17:35;25.90;72.70
12434;DHT22;6281;49.038;8.372;2023-07-13T11:20:19;25.90;71.70
12434;DHT22;6281;49.038;8.372;2023-07-13T11:22:49;25.70;75.70
12434;DHT22;6281;49.038;8.372;2023-07-13T11:25:29;25.50;78.60
12434;DHT22;6281;49.038;8.372;2023-07-13T11:28:14;25.50;78.70
12434;DHT22;6281;49.038;8.372;2023-07-13T11:30:44;24.90;79.40
12434;DHT22;6281;49.038;8.372;2023-07-13T11:33:18;25.60;81.40
12434;DHT22;6281;49.038;8.372;2023-07-13T11:35:53;25.20;78.80
12434;DHT22;6281;49.038;8.372;2023-07-13T11:38:29;25.10;77.90
12434;DHT22;6281;49.038;8.372;2023-07-13T11:41:01;25.60;75.70
12434;DHT22;6281;49.038;8.372;2023-07-13T11:43:30;26.90;72.20
12434;DHT22;6281;49.038;8.372;2023-07-13T11:46:12;27.60;64.90
12434;DHT22;6281;49.038;8.372;2023-07-13T11:48:39;28.30;61.80
12434;DHT22;6281;49.038;8.372;2023-07-13T11:51:09;27.90;59.90
12434;DHT22;6281;49.038;8.372;2023-07-13T11:53:45;28.80;59.00
12434;DHT22;6281;49.038;8.372;2023-07-13T11:56:14;29.50;56.90
12434;DHT22;6281;49.038;8.372;2023-07-13T11:58:41;28.30;56.00
12434;DHT22;6281;49.038;8.372;2023-07-13T12:01:16;28.90;56.00
12434;DHT22;6281;49.038;8.372;2023-07-13T12:03:45;29.60;53.90
12434;DHT22;6281;49.038;8.372;2023-07-13T12:06:25;28.60;51.60
12434;DHT22;6281;49.038;8.372;2023-07-13T12:08:56;28.70;53.60
12434;DHT22;6281;49.038;8.372;2023-07-13T12:11:25;28.70;51.20
12434;DHT22;6281;49.038;8.372;2023-07-13T12:13:52;27.80;50.40
12434;DHT22;6281;49.038;8.372;2023-07-13T12:16:25;28.60;51.20
12434;DHT22;6281;49.038;8.372;2023-07-13T12:18:54;27.60;50.60
12434;DHT22;6281;49.038;8.372;2023-07-13T12:21:31;28.50;50.60
12434;DHT22;6281;49.038;8.372;2023-07-13T12:23:59;27.80;52.10
12434;DHT22;6281;49.038;8.372;2023-07-13T12:26:30;27.00;54.70
12434;DHT22;6281;49.038;8.372;2023-07-13T12:29:00;27.90;52.30
12434;DHT22;6281;49.038;8.372;2023-07-13T12:31:33;29.70;52.70
12434;DHT22;6281;49.038;8.372;2023-07-13T12:34:05;29.10;46.80
12434;DHT22;6281;49.038;8.372;2023-07-13T12:36:34;28.40;51.30
12434;DHT22;6281;49.038;8.372;2023-07-13T12:39:12;28.20;52.10
12434;DHT22;6281;49.038;8.372;2023-07-13T12:41:41;27.90;52.30
12434;DHT22;6281;49.038;8.372;2023-07-13T12:44:11;27.70;50.80
12434;DHT22;6281;49.038;8.372;2023-07-13T12:46:39;27.60;50.20
12434;DHT22;6281;49.038;8.372;2023-07-13T12:49:07;28.00;48.10
12434;DHT22;6281;49.038;8.372;2023-07-13T12:51:37;28.60;47.10
12434;DHT22;6281;49.038;8.372;2023-07-13T12:54:15;28.80;45.10
12434;DHT22;6281;49.038;8.372;2023-07-13T12:56:45;29.00;46.20
12434;DHT22;6281;49.038;8.372;2023-07-13T12:59:19;30.00;44.00
12434;DHT22;6281;49.038;8.372;2023-07-13T13:01:48;29.70;44.30
12434;DHT22;6281;49.038;8.372;2023-07-13T13:04:16;29.30;44.10
12434;DHT22;6281;49.038;8.372;2023-07-13T13:06:47;28.40;45.20
12434;DHT22;6281;49.038;8.372;2023-07-13T13:09:15;29.40;42.50
12434;DHT22;6281;49.038;8.372;2023-07-13T13:11:45;29.20;41.50
12434;DHT22;6281;49.038;8.372;2023-07-13T13:14:12;29.40;40.70
12434;DHT22;6281;49.038;8.372;2023-07-13T13:16:48;28.80;43.90
12434;DHT22;6281;49.038;8.372;2023-07-13T13:19:18;28.30;44.40
12434;DHT22;6281;49.038;8.372;2023-07-13T13:21:47;28.80;43.80
12434;DHT22;6281;49.038;8.372;2023-07-13T13:24:18;27.90;44.00
12434;DHT22;6281;49.038;8.372;2023-07-13T13:26:48;27.10;42.70
12434;DHT22;6281;49.038;8.372;2023-07-13T13:29:16;27.20;43.00
12434;DHT22;6281;49.038;8.372;2023-07-13T13:31:44;27.50;43.10
12434;DHT22;6281;49.038;8.372;2023-07-13T13:34:12;27.10;44.90
12434;DHT22;6281;49.038;8.372;2023-07-13T13:36:39;27.20;45.20
12434;DHT22;6281;49.038;8.372;2023-07-13T13:39:19;27.40;46.30
12434;DHT22;6281;49.038;8.372;2023-07-13T13:41:48;27.00;45.40
12434;DHT22;6281;49.038;8.372;2023-07-13T13:44:16;27.40;43.90
12434;DHT22;6281;49.038;8.372;2023-07-13T13:46:44;27.70;44.30
12434;DHT22;6281;49.038;8.372;2023-07-13T13:49:14;28.10;45.00
12434;DHT22;6281;49.038;8.372;2023-07-13T13:51:42;29.00;43.90
12434;DHT22;6281;49.038;8.372;2023-07-13T13:54:11;29.00;44.70
12434;DHT22;6281;49.038;8.372;2023-07-13T13:56:38;29.50;40.80
12434;DHT22;6281;49.038;8.372;2023-07-13T13:59:07;27.30;44.20
12434;DHT22;6281;49.038;8.372;2023-07-13T14:01:34;27.60;44.90
12434;DHT22;6281;49.038;8.372;2023-07-13T14:04:01;28.60;50.30
12434;DHT22;6281;49.038;8.372;2023-07-13T14:06:29;28.70;44.10
12434;DHT22;6281;49.038;8.372;2023-07-13T14:08:55;28.30;42.20
12434;DHT22;6281;49.038;8.372;2023-07-13T14:11:22;29.50;44.70
12434;DHT22;6281;49.038;8.372;2023-07-13T14:13:52;29.30;44.40
12434;DHT22;6281;49.038;8.372;2023-07-13T14:16:24;29.80;45.70
12434;DHT22;6281;49.038;8.372;2023-07-13T14:18:53;29.60;45.10
12434;DHT22;6281;49.038;8.372;2023-07-13T14:21:22;28.70;49.40
12434;DHT22;6281;49.038;8.372;2023-07-13T14:23:49;27.40;48.80
12434;DHT22;6281;49.038;8.372;2023-07-13T14:26:17;28.30;45.80
12434;DHT22;6281;49.038;8.372;2023-07-13T14:28:47;27.90;49.10
12434;DHT22;6281;49.038;8.372;2023-07-13T14:31:16;28.40;48.10
12434;DHT22;6281;49.038;8.372;2023-07-13T14:33:45;28.50;47.40
12434;DHT22;6281;49.038;8.372;2023-07-13T14:36:23;28.50;47.20
12434;DHT22;6281;49.038;8.372;2023-07-13T14:38:51;28.40;46.90
12434;DHT22;6281;49.038;8.372;2023-07-13T14:41:19;28.90;46.50
12434;DHT22;6281;49.038;8.372;2023-07-13T14:43:46;29.00;48.40
12434;DHT22;6281;49.038;8.372;2023-07-13T14:46:21;28.30;47.50
12434;DHT22;6281;49.038;8.372;2023-07-13T14:48:52;27.50;48.30
12434;DHT22;6281;49.038;8.372;2023-07-13T14:51:20;28.10;46.30
12434;DHT22;6281;49.038;8.372;2023-07-13T14:53:47;28.50;46.70
12434;DHT22;6281;49.038;8.372;2023-07-13T14:56:13;28.40;45.20
12434;DHT22;6281;49.038;8.372;2023-07-13T14:58:40;29.10;43.90
12434;DHT22;6281;49.038;8.372;2023-07-13T15:01:12;28.10;44.30
12434;DHT22;6281;49.038;8.372;2023-07-13T15:03:42;27.20;46.90
12434;DHT22;6281;49.038;8.372;2023-07-13T15:06:12;28.50;47.40
12434;DHT22;6281;49.038;8.372;2023-07-13T15:08:39;27.00;49.30
12434;DHT22;6281;49.038;8.372;2023-07-13T15:11:07;27.40;52.10
12434;DHT22;6281;49.038;8.372;2023-07-13T15:13:33;28.40;52.80
12434;DHT22;6281;49.038;8.372;2023-07-13T15:16:01;28.60;47.00
12434;DHT22;6281;49.038;8.372;2023-07-13T15:18:28;27.40;48.30
12434;DHT22;6281;49.038;8.372;2023-07-13T15:20:55;27.30;52.20
12434;DHT22;6281;49.038;8.372;2023-07-13T15:23:27;26.80;49.30
12434;DHT22;6281;49.038;8.372;2023-07-13T15:25:54;27.10;50.80
12434;DHT22;6281;49.038;8.372;2023-07-13T15:28:20;27.80;49.00
12434;DHT22;6281;49.038;8.372;2023-07-13T15:30:48;28.60;48.80
12434;DHT22;6281;49.038;8.372;2023-07-13T15:33:25;28.60;45.00
12434;DHT22;6281;49.038;8.372;2023-07-13T15:35:52;28.30;47.70
12434;DHT22;6281;49.038;8.372;2023-07-13T15:38:22;28.20;45.10
12434;DHT22;6281;49.038;8.372;2023-07-13T15:40:51;28.10;47.10
12434;DHT22;6281;49.038;8.372;2023-07-13T15:43:19;28.40;45.30
12434;DHT22;6281;49.038;8.372;2023-07-13T15:45:47;28.50;45.20
12434;DHT22;6281;49.038;8.372;2023-07-13T15:48:15;28.50;44.70
12434;DHT22;6281;49.038;8.372;2023-07-13T15:50:44;29.00;44.90
12434;DHT22;6281;49.038;8.372;2023-07-13T15:53:13;27.90;46.40
12434;DHT22;6281;49.038;8.372;2023-07-13T15:55:41;28.30;46.00
12434;DHT22;6281;49.038;8.372;2023-07-13T15:58:12;28.20;45.50
12434;DHT22;6281;49.038;8.372;2023-07-13T16:00:40;28.40;48.80